sensor_id;sensor_type;location;lat;lon;timestamp;pressure;altitude;pressure_sealevel;temperature;humidity
43312;BME280;30041;48.300;16.352;2023-10-13T00:01:44;99914.06;;;22.17;50.28
43312;BME280;30041;48.300;16.352;2023-10-13T00:04:09;99924.28;;;22.15;50.17
43312;BME280;30041;48.300;16.352;2023-10-13T00:06:34;99922.63;;;22.14;50.07
43312;BME280;30041;48.300;16.352;2023-10-13T00:09:00;99912.06;;;22.13;50.07
43312;BME280;30041;48.300;16.352;2023-10-13T00:11:25;99906.41;;;22.14;50.29
43312;BME280;30041;48.300;16.352;2023-10-13T00:13:50;99910.19;;;22.13;50.21
43312;BME280;30041;48.300;16.352;2023-10-13T00:16:17;99901.00;;;22.14;50.49
43312;BME280;30041;48.300;16.352;2023-10-13T00:18:42;99896.47;;;22.15;50.40
43312;BME280;30041;48.300;16.352;2023-10-13T00:21:08;99900.56;;;22.17;50.29
43312;BME280;30041;48.300;16.352;2023-10-13T00:23:34;99908.88;;;22.16;50.27
43312;BME280;30041;48.300;16.352;2023-10-13T00:25:59;99903.50;;;22.16;50.05
43312;BME280;30041;48.300;16.352;2023-10-13T00:28:28;99904.56;;;22.15;50.25
43312;BME280;30041;48.300;16.352;2023-10-13T00:30:54;99901.88;;;22.15;50.27
43312;BME280;30041;48.300;16.352;2023-10-13T00:33:19;99891.88;;;22.15;50.30
43312;BME280;30041;48.300;16.352;2023-10-13T00:35:45;99892.69;;;22.16;50.23
43312;BME280;30041;48.300;16.352;2023-10-13T00:38:10;99891.06;;;22.15;50.45
43312;BME280;30041;48.300;16.352;2023-10-13T00:40:35;99895.97;;;22.18;50.05
43312;BME280;30041;48.300;16.352;2023-10-13T00:43:01;99883.56;;;22.17;50.10
43312;BME280;30041;48.300;16.352;2023-10-13T00:45:27;99883.78;;;22.15;50.20
43312;BME280;30041;48.300;16.352;2023-10-13T00:47:52;99877.56;;;22.15;50.38
43312;BME280;30041;48.300;16.352;2023-10-13T00:50:17;99876.50;;;22.16;50.15
43312;BME280;30041;48.300;16.352;2023-10-13T00:52:44;99877.56;;;22.15;50.38
43312;BME280;30041;48.300;16.352;2023-10-13T00:55:11;99874.88;;;22.15;50.07
43312;BME280;30041;48.300;16.352;2023-10-13T00:57:37;99871.31;;;22.14;50.32
43312;BME280;30041;48.300;16.352;2023-10-13T01:00:03;99876.50;;;22.16;50.25
43312;BME280;30041;48.300;16.352;2023-10-13T01:02:28;99877.31;;;22.16;50.27
43312;BME280;30041;48.300;16.352;2023-10-13T01:04:53;99884.59;;;22.16;50.22
43312;BME280;30041;48.300;16.352;2023-10-13T01:07:19;99886.47;;;22.15;50.31
43312;BME280;30041;48.300;16.352;2023-10-13T01:09:44;99894.56;;;22.15;50.22
43312;BME280;30041;48.300;16.352;2023-10-13T01:12:09;99895.41;;;22.16;50.34
43312;BME280;30041;48.300;16.352;2023-10-13T01:14:35;99890.59;;;22.18;50.18
43312;BME280;30041;48.300;16.352;2023-10-13T01:17:00;99882.25;;;22.20;50.30
43312;BME280;30041;48.300;16.352;2023-10-13T01:19:25;99859.81;;;22.19;50.15
43312;BME280;30041;48.300;16.352;2023-10-13T01:21:51;99857.97;;;22.20;50.13
43312;BME280;30041;48.300;16.352;2023-10-13T01:24:17;99851.97;;;22.17;50.36
43312;BME280;30041;48.300;16.352;2023-10-13T01:26:42;99855.50;;;22.18;50.35
43312;BME280;30041;48.300;16.352;2023-10-13T01:29:07;99867.09;;;22.18;50.28
43312;BME280;30041;48.300;16.352;2023-10-13T01:31:33;99859.00;;;22.18;50.14
43312;BME280;30041;48.300;16.352;2023-10-13T01:33:58;99861.69;;;22.18;50.16
43312;BME280;30041;48.300;16.352;2023-10-13T01:36:23;99864.41;;;22.18;50.10
43312;BME280;30041;48.300;16.352;2023-10-13T01:38:49;99867.91;;;22.19;50.29
43312;BME280;30041;48.300;16.352;2023-10-13T01:41:14;99859.00;;;22.18;50.33
43312;BME280;30041;48.300;16.352;2023-10-13T01:43:40;99866.88;;;22.20;50.33
43312;BME280;30041;48.300;16.352;2023-10-13T01:46:05;99871.69;;;22.18;50.17
43312;BME280;30041;48.300;16.352;2023-10-13T01:48:30;99868.75;;;22.20;50.22
43312;BME280;30041;48.300;16.352;2023-10-13T01:50:56;99866.28;;;22.18;50.44
43312;BME280;30041;48.300;16.352;2023-10-13T01:53:21;99873.31;;;22.19;50.23
43312;BME280;30041;48.300;16.352;2023-10-13T01:55:47;99879.56;;;22.20;50.34
43312;BME280;30041;48.300;16.352;2023-10-13T01:58:15;99879.78;;;22.18;50.28
43312;BME280;30041;48.300;16.352;2023-10-13T02:00:45;99879.78;;;22.18;50.17
43312;BME280;30041;48.300;16.352;2023-10-13T02:03:12;99876.00;;;22.19;50.10
43312;BME280;30041;48.300;16.352;2023-10-13T02:05:37;99877.47;;;22.22;50.20
43312;BME280;30041;48.300;16.352;2023-10-13T02:08:03;99881.41;;;22.19;50.35
43312;BME280;30041;48.300;16.352;2023-10-13T02:10:28;99877.91;;;22.18;50.25
43312;BME280;30041;48.300;16.352;2023-10-13T02:12:53;99878.47;;;22.21;50.22
43312;BME280;30041;48.300;16.352;2023-10-13T02:15:19;99875.19;;;22.18;50.10
43312;BME280;30041;48.300;16.352;2023-10-13T02:17:44;99874.16;;;22.20;50.22
43312;BME280;30041;48.300;16.352;2023-10-13T02:20:09;99884.97;;;22.20;50.16
43312;BME280;30041;48.300;16.352;2023-10-13T02:22:35;99889.28;;;22.21;50.35
43312;BME280;30041;48.300;16.352;2023-10-13T02:25:00;99900.09;;;22.21;50.36
43312;BME280;30041;48.300;16.352;2023-10-13T02:27:25;99890.09;;;22.21;50.34
43312;BME280;30041;48.300;16.352;2023-10-13T02:29:51;99878.47;;;22.21;49.99
43312;BME280;30041;48.300;16.352;2023-10-13T02:32:16;99869.56;;;22.20;50.13
43312;BME280;30041;48.300;16.352;2023-10-13T02:34:41;99881.19;;;22.21;50.26
43312;BME280;30041;48.300;16.352;2023-10-13T02:37:07;99865.00;;;22.21;50.08
43312;BME280;30041;48.300;16.352;2023-10-13T02:39:32;99857.50;;;22.23;50.04
43312;BME280;30041;48.300;16.352;2023-10-13T02:41:57;99865.59;;;22.23;50.30
43312;BME280;30041;48.300;16.352;2023-10-13T02:44:22;99860.41;;;22.21;50.23
43312;BME280;30041;48.300;16.352;2023-10-13T02:46:48;99868.50;;;22.21;50.14
43312;BME280;30041;48.300;16.352;2023-10-13T02:49:13;99882.88;;;22.22;50.20
43312;BME280;30041;48.300;16.352;2023-10-13T02:51:38;99870.19;;;22.22;50.13
43312;BME280;30041;48.300;16.352;2023-10-13T02:54:04;99881.00;;;22.22;50.21
43312;BME280;30041;48.300;16.352;2023-10-13T02:56:30;99883.69;;;22.22;50.28
43312;BME280;30041;48.300;16.352;2023-10-13T02:58:55;99897.19;;;22.22;50.28
43312;BME280;30041;48.300;16.352;2023-10-13T03:01:20;99888.28;;;22.22;50.06
43312;BME280;30041;48.300;16.352;2023-10-13T03:03:48;99884.69;;;22.21;50.13
43312;BME280;30041;48.300;16.352;2023-10-13T03:06:14;99885.56;;;22.22;50.13
43312;BME280;30041;48.300;16.352;2023-10-13T03:08:40;99887.41;;;22.21;50.05
43312;BME280;30041;48.300;16.352;2023-10-13T03:11:05;99884.50;;;22.23;50.05
43312;BME280;30041;48.300;16.352;2023-10-13T03:13:31;99886.13;;;22.24;50.34
43312;BME280;30041;48.300;16.352;2023-10-13T03:15:56;99886.38;;;22.22;50.21
43312;BME280;30041;48.300;16.352;2023-10-13T03:18:22;99887.19;;;22.23;50.18
43312;BME280;30041;48.300;16.352;2023-10-13T03:20:47;99879.91;;;22.23;50.11
43312;BME280;30041;48.300;16.352;2023-10-13T03:23:12;99889.91;;;22.23;50.08
43312;BME280;30041;48.300;16.352;2023-10-13T03:25:38;99896.94;;;22.24;49.96
43312;BME280;30041;48.300;16.352;2023-10-13T03:28:03;99903.41;;;22.23;50.18
43312;BME280;30041;48.300;16.352;2023-10-13T03:30:29;99913.38;;;22.22;50.18
43312;BME280;30041;48.300;16.352;2023-10-13T03:32:54;99917.72;;;22.23;50.21
43312;BME280;30041;48.300;16.352;2023-10-13T03:35:22;99925.00;;;22.23;50.25
43312;BME280;30041;48.300;16.352;2023-10-13T03:37:47;99903.41;;;22.23;50.11
43312;BME280;30041;48.300;16.352;2023-10-13T03:40:13;99895.31;;;22.23;50.25
43312;BME280;30041;48.300;16.352;2023-10-13T03:42:38;99908.56;;;22.24;50.29
43312;BME280;30041;48.300;16.352;2023-10-13T03:45:04;99908.56;;;22.24;50.20
43312;BME280;30041;48.300;16.352;2023-10-13T03:47:29;99899.63;;;22.24;50.04
43312;BME280;30041;48.300;16.352;2023-10-13T03:49:55;99911.28;;;22.24;50.12
43312;BME280;30041;48.300;16.352;2023-10-13T03:52:21;99923.94;;;22.24;50.19
43312;BME280;30041;48.300;16.352;2023-10-13T03:54:46;99929.31;;;22.24;50.14
43312;BME280;30041;48.300;16.352;2023-10-13T03:57:11;99926.63;;;22.24;50.24
43312;BME280;30041;48.300;16.352;2023-10-13T03:59:37;99925.00;;;22.23;50.30
43312;BME280;30041;48.300;16.352;2023-10-13T04:02:03;99920.88;;;22.20;50.14
43312;BME280;30041;48.300;16.352;2023-10-13T04:04:28;99926.06;;;22.22;50.08
43312;BME280;30041;48.300;16.352;2023-10-13T04:06:53;99925.00;;;22.23;50.15
43312;BME280;30041;48.300;16.352;2023-10-13T04:09:21;99926.06;;;22.22;50.32
43312;BME280;30041;48.300;16.352;2023-10-13T04:11:47;99927.69;;;22.23;50.28
43312;BME280;30041;48.300;16.352;2023-10-13T04:14:12;99917.97;;;22.22;50.13
43312;BME280;30041;48.300;16.352;2023-10-13T04:16:38;99920.41;;;22.23;50.22
43312;BME280;30041;48.300;16.352;2023-10-13T04:19:03;99920.66;;;22.22;50.05
43312;BME280;30041;48.300;16.352;2023-10-13T04:21:28;99922.31;;;22.23;50.16
43312;BME280;30041;48.300;16.352;2023-10-13T04:23:54;99917.09;;;22.21;50.42
43312;BME280;30041;48.300;16.352;2023-10-13T04:26:19;99915.81;;;22.24;50.22
43312;BME280;30041;48.300;16.352;2023-10-13T04:28:44;99913.13;;;22.24;50.31
43312;BME280;30041;48.300;16.352;2023-10-13T04:31:15;99906.91;;;22.23;50.42
43312;BME280;30041;48.300;16.352;2023-10-13T04:33:41;99903.41;;;22.23;50.56
43312;BME280;30041;48.300;16.352;2023-10-13T04:38:31;99898.19;;;22.21;50.47
43312;BME280;30041;48.300;16.352;2023-10-13T04:40:57;99899.63;;;22.24;50.55
43312;BME280;30041;48.300;16.352;2023-10-13T04:43:22;99895.88;;;22.25;50.63
43312;BME280;30041;48.300;16.352;2023-10-13T04:45:47;99898.59;;;22.25;50.34
43312;BME280;30041;48.300;16.352;2023-10-13T04:48:13;99898.38;;;22.26;50.53
43312;BME280;30041;48.300;16.352;2023-10-13T04:50:38;99902.91;;;22.26;50.32
43312;BME280;30041;48.300;16.352;2023-10-13T04:53:03;99908.56;;;22.24;50.42
43312;BME280;30041;48.300;16.352;2023-10-13T04:55:29;99903.16;;;22.24;50.40
43312;BME280;30041;48.300;16.352;2023-10-13T04:57:54;99898.59;;;22.25;50.33
43312;BME280;30041;48.300;16.352;2023-10-13T05:00:19;99903.16;;;22.24;50.45
43312;BME280;30041;48.300;16.352;2023-10-13T05:02:47;99917.50;;;22.25;50.38
43312;BME280;30041;48.300;16.352;2023-10-13T05:05:13;99908.56;;;22.24;50.60
43312;BME280;30041;48.300;16.352;2023-10-13T05:07:39;99912.09;;;22.25;50.33
43312;BME280;30041;48.300;16.352;2023-10-13T05:10:06;99905.63;;;22.26;50.46
43312;BME280;30041;48.300;16.352;2023-10-13T05:12:31;99911.00;;;22.26;50.55
43312;BME280;30041;48.300;16.352;2023-10-13T05:14:56;99921.81;;;22.26;50.67
43312;BME280;30041;48.300;16.352;2023-10-13T05:17:22;99918.31;;;22.25;50.69
43312;BME280;30041;48.300;16.352;2023-10-13T05:19:47;99917.50;;;22.25;50.65
43312;BME280;30041;48.300;16.352;2023-10-13T05:22:12;99918.53;;;22.24;50.52
43312;BME280;30041;48.300;16.352;2023-10-13T05:24:38;99925.38;;;22.26;50.65
43312;BME280;30041;48.300;16.352;2023-10-13T05:27:03;99920.19;;;22.25;50.49
43312;BME280;30041;48.300;16.352;2023-10-13T05:29:28;99919.59;;;22.23;50.61
43312;BME280;30041;48.300;16.352;2023-10-13T05:31:54;99919.13;;;22.26;50.40
43312;BME280;30041;48.300;16.352;2023-10-13T05:34:19;99928.06;;;22.26;50.50
43312;BME280;30041;48.300;16.352;2023-10-13T05:36:44;99919.97;;;22.26;50.46
43312;BME280;30041;48.300;16.352;2023-10-13T05:39:10;99927.81;;;22.28;50.46
43312;BME280;30041;48.300;16.352;2023-10-13T05:41:35;99927.00;;;22.27;50.36
43312;BME280;30041;48.300;16.352;2023-10-13T05:44:00;99928.06;;;22.26;50.27
43312;BME280;30041;48.300;16.352;2023-10-13T05:46:26;99936.97;;;22.27;50.47
43312;BME280;30041;48.300;16.352;2023-10-13T05:48:52;99930.75;;;22.26;50.57
43312;BME280;30041;48.300;16.352;2023-10-13T05:51:17;99921.81;;;22.26;50.29
43312;BME280;30041;48.300;16.352;2023-10-13T05:53:43;99928.28;;;22.25;50.39
43312;BME280;30041;48.300;16.352;2023-10-13T05:56:08;99929.09;;;22.25;50.44
43312;BME280;30041;48.300;16.352;2023-10-13T05:58:33;99927.22;;;22.26;50.38
43312;BME280;30041;48.300;16.352;2023-10-13T06:00:59;99930.75;;;22.26;50.67
43312;BME280;30041;48.300;16.352;2023-10-13T06:03:25;99935.31;;;22.26;50.44
43312;BME280;30041;48.300;16.352;2023-10-13T06:05:50;99937.19;;;22.25;50.55
43312;BME280;30041;48.300;16.352;2023-10-13T06:08:15;99940.72;;;22.26;50.65
43312;BME280;30041;48.300;16.352;2023-10-13T06:10:41;99943.41;;;22.26;50.41
43312;BME280;30041;48.300;16.352;2023-10-13T06:13:07;99945.31;;;22.25;50.51
43312;BME280;30041;48.300;16.352;2023-10-13T06:15:36;99949.06;;;22.24;50.67
43312;BME280;30041;48.300;16.352;2023-10-13T06:18:01;99953.25;;;22.20;52.22
43312;BME280;30041;48.300;16.352;2023-10-13T06:20:26;99957.94;;;22.01;52.95
43312;BME280;30041;48.300;16.352;2023-10-13T06:22:52;99961.78;;;21.82;53.22
43312;BME280;30041;48.300;16.352;2023-10-13T06:25:17;99962.13;;;21.73;53.95
43312;BME280;30041;48.300;16.352;2023-10-13T06:27:42;99956.81;;;21.67;54.28
43312;BME280;30041;48.300;16.352;2023-10-13T06:30:08;99966.44;;;21.63;55.24
43312;BME280;30041;48.300;16.352;2023-10-13T06:32:33;99969.34;;;21.61;55.55
43312;BME280;30041;48.300;16.352;2023-10-13T06:34:59;99976.88;;;21.59;55.15
43312;BME280;30041;48.300;16.352;2023-10-13T06:37:25;99978.50;;;21.60;55.06
43312;BME280;30041;48.300;16.352;2023-10-13T06:39:52;99979.09;;;21.62;54.51
43312;BME280;30041;48.300;16.352;2023-10-13T06:42:17;99978.63;;;21.65;54.39
43312;BME280;30041;48.300;16.352;2023-10-13T06:44:43;99978.63;;;21.65;54.33
43312;BME280;30041;48.300;16.352;2023-10-13T06:47:08;99975.94;;;21.65;54.47
43312;BME280;30041;48.300;16.352;2023-10-13T06:49:33;99984.03;;;21.65;54.16
43312;BME280;30041;48.300;16.352;2023-10-13T06:51:58;99983.22;;;21.65;54.01
43312;BME280;30041;48.300;16.352;2023-10-13T06:54:24;99983.69;;;21.62;54.76
43312;BME280;30041;48.300;16.352;2023-10-13T06:56:49;99986.00;;;21.58;55.43
43312;BME280;30041;48.300;16.352;2023-10-13T06:59:14;99987.41;;;21.61;55.55
43312;BME280;30041;48.300;16.352;2023-10-13T07:01:40;99988.69;;;21.58;55.69
43312;BME280;30041;48.300;16.352;2023-10-13T07:04:09;99993.06;;;21.59;55.41
43312;BME280;30041;48.300;16.352;2023-10-13T07:06:34;99987.50;;;21.54;55.58
43312;BME280;30041;48.300;16.352;2023-10-13T07:08:59;99990.81;;;21.56;55.33
43312;BME280;30041;48.300;16.352;2023-10-13T07:11:25;99991.19;;;21.60;54.98
43312;BME280;30041;48.300;16.352;2023-10-13T07:13:51;99981.06;;;21.55;54.83
43312;BME280;30041;48.300;16.352;2023-10-13T07:16:16;99982.50;;;21.58;54.75
43312;BME280;30041;48.300;16.352;2023-10-13T07:18:41;99981.66;;;21.57;54.80
43312;BME280;30041;48.300;16.352;2023-10-13T07:21:09;99977.31;;;21.56;55.13
43312;BME280;30041;48.300;16.352;2023-10-13T07:23:34;99983.78;;;21.55;55.75
43312;BME280;30041;48.300;16.352;2023-10-13T07:25:59;99977.56;;;21.54;55.41
43312;BME280;30041;48.300;16.352;2023-10-13T07:28:25;99982.97;;;21.54;55.32
43312;BME280;30041;48.300;16.352;2023-10-13T07:30:50;99980.81;;;21.56;54.98
43312;BME280;30041;48.300;16.352;2023-10-13T07:33:16;99980.59;;;21.58;54.89
43312;BME280;30041;48.300;16.352;2023-10-13T07:35:41;99978.59;;;21.53;54.76
43312;BME280;30041;48.300;16.352;2023-10-13T07:38:07;99980.69;;;21.51;55.04
43312;BME280;30041;48.300;16.352;2023-10-13T07:40:32;99998.97;;;21.49;55.05
43312;BME280;30041;48.300;16.352;2023-10-13T07:42:57;99994.19;;;21.51;54.89
43312;BME280;30041;48.300;16.352;2023-10-13T07:45:23;99997.34;;;21.48;54.78
43312;BME280;30041;48.300;16.352;2023-10-13T07:47:48;99995.00;;;21.52;54.87
43312;BME280;30041;48.300;16.352;2023-10-13T07:50:14;100002.28;;;21.51;54.70
43312;BME280;30041;48.300;16.352;2023-10-13T07:52:39;99996.88;;;21.51;54.76
43312;BME280;30041;48.300;16.352;2023-10-13T07:55:05;100002.50;;;21.50;54.59
43312;BME280;30041;48.300;16.352;2023-10-13T07:57:30;99985.88;;;21.53;54.64
43312;BME280;30041;48.300;16.352;2023-10-13T07:59:56;99987.16;;;21.50;54.66
43312;BME280;30041;48.300;16.352;2023-10-13T08:02:21;99983.41;;;21.51;54.55
43312;BME280;30041;48.300;16.352;2023-10-13T08:04:46;99984.22;;;21.52;54.43
43312;BME280;30041;48.300;16.352;2023-10-13T08:07:12;99980.91;;;21.50;54.50
43312;BME280;30041;48.300;16.352;2023-10-13T08:09:38;99985.50;;;21.49;54.64
43312;BME280;30041;48.300;16.352;2023-10-13T08:12:03;99989.59;;;21.52;54.29
43312;BME280;30041;48.300;16.352;2023-10-13T08:14:29;99972.59;;;21.51;54.54
43312;BME280;30041;48.300;16.352;2023-10-13T08:16:54;99970.38;;;21.48;54.63
43312;BME280;30041;48.300;16.352;2023-10-13T08:19:24;99973.09;;;21.48;54.57
43312;BME280;30041;48.300;16.352;2023-10-13T08:21:50;99976.13;;;21.52;54.25
43312;BME280;30041;48.300;16.352;2023-10-13T08:24:16;99971.19;;;21.49;54.22
43312;BME280;30041;48.300;16.352;2023-10-13T08:26:41;99972.84;;;21.50;54.59
43312;BME280;30041;48.300;16.352;2023-10-13T08:29:06;99971.41;;;21.47;54.58
43312;BME280;30041;48.300;16.352;2023-10-13T08:31:31;99967.44;;;21.50;54.36
43312;BME280;30041;48.300;16.352;2023-10-13T08:33:57;99963.94;;;21.49;54.45
43312;BME280;30041;48.300;16.352;2023-10-13T08:36:22;99967.44;;;21.50;54.41
43312;BME280;30041;48.300;16.352;2023-10-13T08:38:47;99960.63;;;21.47;54.62
43312;BME280;30041;48.300;16.352;2023-10-13T08:41:13;99966.41;;;21.51;54.30
43312;BME280;30041;48.300;16.352;2023-10-13T08:43:42;99963.94;;;21.49;54.44
43312;BME280;30041;48.300;16.352;2023-10-13T08:46:08;99963.59;;;21.46;54.59
43312;BME280;30041;48.300;16.352;2023-10-13T08:48:35;99965.22;;;21.47;54.59
43312;BME280;30041;48.300;16.352;2023-10-13T08:51:02;99966.03;;;21.47;54.38
43312;BME280;30041;48.300;16.352;2023-10-13T08:53:29;99968.50;;;21.49;54.49
43312;BME280;30041;48.300;16.352;2023-10-13T08:55:59;99968.72;;;21.47;54.61
43312;BME280;30041;48.300;16.352;2023-10-13T08:58:24;99977.06;;;21.46;54.77
43312;BME280;30041;48.300;16.352;2023-10-13T09:00:50;99969.19;;;21.44;54.61
43312;BME280;30041;48.300;16.352;2023-10-13T09:03:18;99971.66;;;21.46;54.73
43312;BME280;30041;48.300;16.352;2023-10-13T09:05:44;99977.31;;;21.56;54.09
43312;BME280;30041;48.300;16.352;2023-10-13T09:08:10;99977.59;;;21.66;53.88
43312;BME280;30041;48.300;16.352;2023-10-13T09:10:36;99974.53;;;21.74;53.45
43312;BME280;30041;48.300;16.352;2023-10-13T09:13:01;99976.31;;;21.81;53.41
43312;BME280;30041;48.300;16.352;2023-10-13T09:15:30;99969.88;;;21.82;53.17
43312;BME280;30041;48.300;16.352;2023-10-13T09:17:56;99970.81;;;21.87;52.94
43312;BME280;30041;48.300;16.352;2023-10-13T09:20:29;99965.44;;;21.87;52.89
43312;BME280;30041;48.300;16.352;2023-10-13T09:22:55;99963.31;;;21.89;52.96
43312;BME280;30041;48.300;16.352;2023-10-13T09:25:24;99964.13;;;21.90;52.80
43312;BME280;30041;48.300;16.352;2023-10-13T17:27:41;99581.53;;;22.04;52.59
43312;BME280;30041;48.300;16.352;2023-10-13T17:30:08;99585.13;;;22.09;52.59
43312;BME280;30041;48.300;16.352;2023-10-13T17:32:33;99583.38;;;22.03;52.72
43312;BME280;30041;48.300;16.352;2023-10-13T17:35:02;99573.09;;;22.00;52.90
43312;BME280;30041;48.300;16.352;2023-10-13T17:37:30;99574.28;;;21.92;52.52
43312;BME280;30041;48.300;16.352;2023-10-13T17:39:59;99569.28;;;21.84;52.19
43312;BME280;30041;48.300;16.352;2023-10-13T17:42:25;99567.31;;;21.80;51.91
43312;BME280;30041;48.300;16.352;2023-10-13T17:44:50;99562.75;;;21.80;52.17
43312;BME280;30041;48.300;16.352;2023-10-13T17:47:15;99561.34;;;21.77;52.10
43312;BME280;30041;48.300;16.352;2023-10-13T17:49:41;99557.00;;;21.76;52.10
43312;BME280;30041;48.300;16.352;2023-10-13T17:52:06;99551.88;;;21.75;52.22
43312;BME280;30041;48.300;16.352;2023-10-13T17:54:32;99550.47;;;21.72;52.55
43312;BME280;30041;48.300;16.352;2023-10-13T17:56:57;99550.22;;;21.74;52.23
43312;BME280;30041;48.300;16.352;2023-10-13T17:59:23;99552.31;;;21.72;52.58
43312;BME280;30041;48.300;16.352;2023-10-13T18:01:48;99555.03;;;21.72;52.28
43312;BME280;30041;48.300;16.352;2023-10-13T18:04:14;99549.41;;;21.73;52.26
43312;BME280;30041;48.300;16.352;2023-10-13T18:06:39;99546.47;;;21.75;52.27
43312;BME280;30041;48.300;16.352;2023-10-13T18:09:05;99548.31;;;21.74;52.40
43312;BME280;30041;48.300;16.352;2023-10-13T18:11:30;99547.28;;;21.75;52.13
43312;BME280;30041;48.300;16.352;2023-10-13T18:13:56;99543.19;;;21.73;52.51
43312;BME280;30041;48.300;16.352;2023-10-13T18:16:23;99545.06;;;21.72;52.29
43312;BME280;30041;48.300;16.352;2023-10-13T18:18:49;99538.59;;;21.73;51.56
43312;BME280;30041;48.300;16.352;2023-10-13T18:21:14;99543.41;;;21.71;52.14
43312;BME280;30041;48.300;16.352;2023-10-13T18:23:40;99536.97;;;21.72;52.36
43312;BME280;30041;48.300;16.352;2023-10-13T18:26:09;99531.59;;;21.72;52.56
43312;BME280;30041;48.300;16.352;2023-10-13T18:28:35;99525.69;;;21.75;52.49
43312;BME280;30041;48.300;16.352;2023-10-13T18:31:00;99515.72;;;21.76;52.26
43312;BME280;30041;48.300;16.352;2023-10-13T18:33:26;99516.31;;;21.78;52.45
43312;BME280;30041;48.300;16.352;2023-10-13T18:35:51;99517.38;;;21.77;52.45
43312;BME280;30041;48.300;16.352;2023-10-13T18:38:17;99505.28;;;21.80;52.48
43312;BME280;30041;48.300;16.352;2023-10-13T18:40:42;99500.69;;;21.80;52.38
43312;BME280;30041;48.300;16.352;2023-10-13T18:43:08;99501.75;;;21.79;52.58
43312;BME280;30041;48.300;16.352;2023-10-13T18:45:33;99506.09;;;21.80;52.34
43312;BME280;30041;48.300;16.352;2023-10-13T18:47:59;99490.13;;;21.79;52.59
43312;BME280;30041;48.300;16.352;2023-10-13T18:50:24;99498.56;;;21.82;52.32
43312;BME280;30041;48.300;16.352;2023-10-13T18:52:50;99500.69;;;21.80;52.81
43312;BME280;30041;48.300;16.352;2023-10-13T18:55:15;99505.13;;;21.86;52.54
43312;BME280;30041;48.300;16.352;2023-10-13T18:57:42;99499.22;;;21.89;52.66
43312;BME280;30041;48.300;16.352;2023-10-13T19:00:08;99504.13;;;21.92;52.81
43312;BME280;30041;48.300;16.352;2023-10-13T19:02:33;99503.91;;;21.94;52.48
43312;BME280;30041;48.300;16.352;2023-10-13T19:04:59;99506.59;;;21.94;52.45
43312;BME280;30041;48.300;16.352;2023-10-13T19:07:24;99505.44;;;21.90;52.81
43312;BME280;30041;48.300;16.352;2023-10-13T19:09:50;99497.34;;;21.90;52.72
43312;BME280;30041;48.300;16.352;2023-10-13T19:12:16;99498.72;;;21.92;52.84
43312;BME280;30041;48.300;16.352;2023-10-13T19:14:41;99494.19;;;21.93;52.73
43312;BME280;30041;48.300;16.352;2023-10-13T19:17:07;99498.25;;;21.95;52.81
43312;BME280;30041;48.300;16.352;2023-10-13T19:19:32;99489.59;;;21.93;52.69
43312;BME280;30041;48.300;16.352;2023-10-13T19:22:01;99490.09;;;21.90;52.78
43312;BME280;30041;48.300;16.352;2023-10-13T19:24:27;99485.75;;;21.89;52.66
43312;BME280;30041;48.300;16.352;2023-10-13T19:26:52;99484.84;;;21.84;52.73
43312;BME280;30041;48.300;16.352;2023-10-13T19:29:18;99485.97;;;21.88;52.67
43312;BME280;30041;48.300;16.352;2023-10-13T19:31:44;99493.03;;;21.89;52.82
43312;BME280;30041;48.300;16.352;2023-10-13T19:34:09;99485.97;;;21.88;52.55
43312;BME280;30041;48.300;16.352;2023-10-13T19:36:35;99480.03;;;21.86;52.71
43312;BME280;30041;48.300;16.352;2023-10-13T19:39:02;99475.09;;;21.83;52.86
43312;BME280;30041;48.300;16.352;2023-10-13T19:41:28;99469.13;;;21.81;52.92
43312;BME280;30041;48.300;16.352;2023-10-13T19:43:56;99473.13;;;21.78;53.21
43312;BME280;30041;48.300;16.352;2023-10-13T19:46:22;99477.50;;;21.79;53.06
43312;BME280;30041;48.300;16.352;2023-10-13T19:48:48;99470.78;;;21.82;52.81
43312;BME280;30041;48.300;16.352;2023-10-13T19:51:14;99461.63;;;21.83;52.77
43312;BME280;30041;48.300;16.352;2023-10-13T19:53:40;99468.31;;;21.80;53.02
43312;BME280;30041;48.300;16.352;2023-10-13T19:56:15;99452.94;;;21.81;52.92
43312;BME280;30041;48.300;16.352;2023-10-13T19:58:41;99467.50;;;21.80;52.69
43312;BME280;30041;48.300;16.352;2023-10-13T20:01:15;99463.75;;;21.81;52.82
43312;BME280;30041;48.300;16.352;2023-10-13T20:03:41;99458.69;;;21.84;52.87
43312;BME280;30041;48.300;16.352;2023-10-13T20:06:11;99456.22;;;21.83;52.94
43312;BME280;30041;48.300;16.352;2023-10-13T20:08:37;99455.00;;;21.90;52.69
43312;BME280;30041;48.300;16.352;2023-10-13T20:11:05;99462.28;;;21.90;52.94
43312;BME280;30041;48.300;16.352;2023-10-13T20:13:30;99460.16;;;21.92;52.67
43312;BME280;30041;48.300;16.352;2023-10-13T20:15:57;99452.88;;;21.92;52.84
43312;BME280;30041;48.300;16.352;2023-10-13T20:18:22;99449.84;;;21.89;52.95
43312;BME280;30041;48.300;16.352;2023-10-13T20:20:48;99448.78;;;21.90;52.93
43312;BME280;30041;48.300;16.352;2023-10-13T20:23:13;99446.06;;;21.90;52.80
43312;BME280;30041;48.300;16.352;2023-10-13T20:25:42;99443.38;;;21.90;52.93
43312;BME280;30041;48.300;16.352;2023-10-13T20:28:08;99441.25;;;21.92;52.92
43312;BME280;30041;48.300;16.352;2023-10-13T20:30:34;99431.84;;;21.94;52.82
43312;BME280;30041;48.300;16.352;2023-10-13T20:33:00;99427.78;;;21.92;52.78
43312;BME280;30041;48.300;16.352;2023-10-13T20:35:26;99429.66;;;21.91;52.73
43312;BME280;30041;48.300;16.352;2023-10-13T20:37:51;99432.13;;;21.93;52.59
43312;BME280;30041;48.300;16.352;2023-10-13T20:40:16;99421.22;;;21.88;52.88
43312;BME280;30041;48.300;16.352;2023-10-13T20:42:42;99422.88;;;21.89;52.96
43312;BME280;30041;48.300;16.352;2023-10-13T20:45:08;99423.69;;;21.89;52.96